createdAt,value
2022-12-12T00:00:27.787Z,-2.03
2022-12-12T00:05:51.529Z,-2.02
2022-12-12T00:11:14.189Z,-2.01
2022-12-12T00:16:37.056Z,-1.99
2022-12-12T00:21:59.649Z,-1.95
2022-12-12T00:27:22.471Z,-1.91
2022-12-12T00:32:44.736Z,-1.86
2022-12-12T00:38:07.062Z,-1.84
2022-12-12T00:43:29.605Z,-1.74
2022-12-12T00:48:51.954Z,-1.76
2022-12-12T00:54:14.591Z,-1.75
2022-12-12T00:59:36.860Z,-1.71
2022-12-12T01:04:59.196Z,-1.69
2022-12-12T01:10:23.003Z,-1.65
2022-12-12T01:15:45.516Z,-1.65
2022-12-12T01:21:07.977Z,-1.61
2022-12-12T01:26:33.953Z,-1.62
2022-12-12T01:31:56.134Z,-1.63
2022-12-12T01:37:18.414Z,-1.62
2022-12-12T01:42:41.865Z,-1.62
2022-12-12T01:48:05.565Z,-1.58
2022-12-12T01:53:30.085Z,-1.57
2022-12-12T01:58:54.672Z,-1.58
2022-12-12T02:04:19.631Z,-1.62
2022-12-12T02:09:44.972Z,-1.68
2022-12-12T02:15:08.425Z,-1.64
2022-12-12T02:20:44.540Z,-1.63
2022-12-12T02:26:49.380Z,-1.54
2022-12-12T02:32:20.107Z,-1.52
2022-12-12T02:37:50.305Z,-1.47
2022-12-12T02:43:26.944Z,-1.41
2022-12-12T02:49:19.225Z,-1.31
2022-12-12T02:54:42.176Z,-1.27
2022-12-12T03:00:15.649Z,-1.25
2022-12-12T03:06:05.814Z,-1.28
2022-12-12T03:18:03.539Z,-1.21
2022-12-12T03:23:30.698Z,-1.37
2022-12-12T03:28:57.764Z,-1.46
2022-12-12T03:34:33.302Z,-1.52
2022-12-12T03:40:05.013Z,-1.59
2022-12-12T03:45:49.541Z,-1.71
2022-12-12T03:51:31.961Z,-1.82
2022-12-12T03:57:05.008Z,-1.90
2022-12-12T04:02:52.076Z,-1.99
2022-12-12T04:08:23.559Z,-2.06
2022-12-12T04:14:05.642Z,-2.06
2022-12-12T04:19:56.682Z,-1.99
2022-12-12T04:25:25.456Z,-2.05
2022-12-12T04:30:50.442Z,-1.93
2022-12-12T04:36:15.290Z,-1.90
2022-12-12T04:41:41.910Z,-1.85
2022-12-12T04:47:07.453Z,-1.93
2022-12-12T04:52:32.767Z,-1.91
2022-12-12T04:57:59.692Z,-1.88
2022-12-12T05:03:48.722Z,-1.85
2022-12-12T05:09:14.337Z,-1.84
2022-12-12T05:14:37.759Z,-1.82
2022-12-12T05:19:59.948Z,-1.85
2022-12-12T05:25:22.651Z,-1.77
2022-12-12T05:30:45.461Z,-1.80
2022-12-12T05:36:07.672Z,-1.83
2022-12-12T05:41:30.084Z,-1.87
2022-12-12T05:46:52.404Z,-1.92
2022-12-12T05:52:14.613Z,-1.90
2022-12-12T05:57:37.387Z,-1.89
2022-12-12T06:03:00.112Z,-1.92
2022-12-12T06:08:25.214Z,-2.04
2022-12-12T06:13:47.509Z,-2.08
2022-12-12T06:19:10.949Z,-2.14
2022-12-12T06:24:33.717Z,-2.28
2022-12-12T06:29:55.882Z,-2.33
2022-12-12T06:35:18.522Z,-2.37
2022-12-12T06:40:41.568Z,-2.26
2022-12-12T06:46:05.512Z,-2.33
2022-12-12T06:51:35.977Z,-2.31
2022-12-12T06:56:58.628Z,-2.26
2022-12-12T07:02:29.276Z,-2.23
2022-12-12T07:07:47.135Z,-2.24
2022-12-12T07:13:09.489Z,-2.18
2022-12-12T07:18:33.060Z,-2.13
2022-12-12T07:23:55.299Z,-1.98
2022-12-12T07:29:19.113Z,-1.91
2022-12-12T07:34:43.745Z,-1.89
2022-12-12T07:40:08.694Z,-1.75
2022-12-12T07:45:33.190Z,-1.72
2022-12-12T07:50:58.192Z,-1.62
2022-12-12T07:56:25.463Z,-1.53
2022-12-12T08:01:50.138Z,-1.54
2022-12-12T08:07:15.527Z,-1.59
2022-12-12T08:12:41.541Z,-1.43
2022-12-12T08:18:06.264Z,-1.30
2022-12-12T08:23:31.493Z,-1.18
2022-12-12T08:28:55.647Z,-1.12
2022-12-12T08:34:19.790Z,-1.02
2022-12-12T08:39:44.575Z,-0.83
2022-12-12T08:45:09.842Z,-0.56
2022-12-12T08:50:33.814Z,-0.35
2022-12-12T08:55:59.259Z,-0.18
2022-12-12T09:01:25.610Z,-0.15
2022-12-12T09:06:48.909Z,-0.07
2022-12-12T09:12:13.152Z,0.02
2022-12-12T09:17:37.825Z,0.05
2022-12-12T09:23:02.324Z,0.05
2022-12-12T09:28:27.700Z,0.05
2022-12-12T09:33:52.998Z,0.06
2022-12-12T09:39:17.414Z,0.11
2022-12-12T09:44:42.121Z,0.11
2022-12-12T09:50:14.582Z,0.13
2022-12-12T09:56:17.722Z,0.26
2022-12-12T10:02:01.772Z,0.15
2022-12-12T10:07:58.442Z,0.16
2022-12-12T10:13:37.173Z,0.20
2022-12-12T10:19:05.612Z,0.26
2022-12-12T10:24:48.886Z,0.27
2022-12-12T10:30:22.924Z,0.27
2022-12-12T10:35:57.780Z,0.33
2022-12-12T10:41:30.128Z,0.38
2022-12-12T10:47:02.268Z,0.40
2022-12-12T10:52:40.773Z,0.37
2022-12-12T10:58:17.036Z,0.50
2022-12-12T11:03:54.520Z,0.56
2022-12-12T11:09:23.405Z,0.62
2022-12-12T11:14:57.323Z,0.69
2022-12-12T11:20:25.233Z,0.75
2022-12-12T11:25:51.044Z,0.61
2022-12-12T11:31:21.618Z,0.56
2022-12-12T11:36:54.810Z,0.53
2022-12-12T11:42:35.297Z,0.50
2022-12-12T11:48:02.317Z,0.71
2022-12-12T11:53:28.610Z,0.66
2022-12-12T11:59:07.272Z,0.59
2022-12-12T12:04:58.452Z,0.58
2022-12-12T12:10:54.443Z,0.49
2022-12-12T12:16:41.705Z,0.50
2022-12-12T12:22:11.018Z,0.53
2022-12-12T12:27:57.537Z,0.55
2022-12-12T12:33:44.988Z,0.61
2022-12-12T12:39:28.836Z,0.47
2022-12-12T12:45:16.300Z,0.41
2022-12-12T12:50:45.836Z,0.35
2022-12-12T13:01:58.310Z,0.39
2022-12-12T13:07:39.111Z,0.27
2022-12-12T13:13:27.983Z,0.30
2022-12-12T13:18:55.664Z,0.28
2022-12-12T13:24:34.450Z,0.28
2022-12-12T13:30:09.103Z,0.26
2022-12-12T13:35:56.937Z,0.30
2022-12-12T13:41:25.959Z,0.26
2022-12-12T13:46:56.931Z,0.24
2022-12-12T13:52:43.175Z,0.17
2022-12-12T13:58:41.616Z,0.15
2022-12-12T14:04:07.270Z,0.06
2022-12-12T14:09:47.914Z,-0.01
2022-12-12T14:15:16.171Z,-0.02
2022-12-12T14:21:03.980Z,-0.04
2022-12-12T14:26:50.536Z,-0.03
2022-12-12T14:32:39.821Z,-0.05
2022-12-12T14:38:18.071Z,-0.06
2022-12-12T14:43:47.065Z,-0.07
2022-12-12T14:49:27.766Z,-0.06
2022-12-12T14:54:53.146Z,-0.06
2022-12-12T15:00:24.983Z,-0.03
2022-12-12T15:05:48.572Z,-0.04
2022-12-12T15:11:22.708Z,-0.03
2022-12-12T15:16:50.587Z,-0.02
2022-12-12T15:22:19.301Z,-0.03
2022-12-12T15:27:52.336Z,-0.09
2022-12-12T15:33:15.491Z,-0.14
2022-12-12T15:38:40.537Z,-0.19
2022-12-12T15:44:04.536Z,-0.28
2022-12-12T15:49:51.174Z,-0.37
2022-12-12T15:55:27.735Z,-0.42
2022-12-12T16:00:58.626Z,-0.40
2022-12-12T16:06:32.038Z,-0.37
2022-12-12T16:12:03.391Z,-0.38
2022-12-12T16:17:39.425Z,-0.40
2022-12-12T16:23:16.715Z,-0.35
2022-12-12T16:28:43.096Z,-0.32
2022-12-12T16:34:09.284Z,-0.31
2022-12-12T16:39:33.524Z,-0.32
2022-12-12T16:44:56.355Z,-0.30
2022-12-12T16:50:20.345Z,-0.32
2022-12-12T16:55:43.988Z,-0.35
2022-12-12T17:01:06.616Z,-0.42
2022-12-12T17:06:28.883Z,-0.49
2022-12-12T17:11:52.115Z,-0.51
2022-12-12T17:17:14.369Z,-0.54
2022-12-12T17:22:38.829Z,-0.61
2022-12-12T17:28:04.890Z,-0.65
2022-12-12T17:33:28.398Z,-0.67
2022-12-12T17:38:52.671Z,-0.69
2022-12-12T17:44:16.442Z,-0.66
2022-12-12T17:49:40.855Z,-0.62
2022-12-12T17:55:54.330Z,-0.59
2022-12-12T18:00:31.431Z,-0.55
2022-12-12T18:05:54.591Z,-0.54
2022-12-12T18:11:25.089Z,-0.50
2022-12-12T18:16:53.758Z,-0.56
2022-12-12T18:22:16.730Z,-0.68
2022-12-12T18:27:40.770Z,-0.80
2022-12-12T18:33:03.424Z,-0.98
2022-12-12T18:38:25.819Z,-0.94
2022-12-12T18:43:49.680Z,-0.87
2022-12-12T18:49:14.610Z,-0.83
2022-12-12T18:54:36.830Z,-0.79
2022-12-12T18:59:59.603Z,-0.81
2022-12-12T19:05:23.796Z,-0.80
2022-12-12T19:10:47.843Z,-0.88
2022-12-12T19:16:16.205Z,-1.01
2022-12-12T19:21:40.898Z,-1.13
2022-12-12T19:27:03.829Z,-1.22
2022-12-12T19:32:26.585Z,-1.30
2022-12-12T19:37:48.849Z,-1.37
2022-12-12T19:43:11.583Z,-1.42
2022-12-12T19:48:34.169Z,-1.50
2022-12-12T19:54:00.455Z,-1.56
2022-12-12T19:59:27.439Z,-1.48
2022-12-12T20:04:49.915Z,-1.49
2022-12-12T20:10:13.729Z,-1.54
2022-12-12T20:15:36.988Z,-1.59
2022-12-12T20:26:37.475Z,-1.65
2022-12-12T20:32:02.459Z,-1.87
2022-12-12T20:37:24.750Z,-1.89
2022-12-12T20:42:54.118Z,-2.02
2022-12-12T20:48:10.982Z,-2.06
2022-12-12T20:53:36.377Z,-2.05
2022-12-12T20:59:01.558Z,-2.09
2022-12-12T21:04:26.222Z,-2.10
2022-12-12T21:09:48.484Z,-2.18
2022-12-12T21:15:12.489Z,-2.28
2022-12-12T21:20:35.325Z,-2.26
2022-12-12T21:25:57.587Z,-2.15
2022-12-12T21:31:29.495Z,-1.83
2022-12-12T21:36:52.309Z,-1.85
2022-12-12T21:42:15.043Z,-1.77
2022-12-12T21:47:37.646Z,-1.68
2022-12-12T21:53:17.661Z,-1.64
2022-12-12T21:58:33.609Z,-1.63
2022-12-12T22:03:57.156Z,-1.52
2022-12-12T22:09:21.307Z,-1.53
2022-12-12T22:14:44.687Z,-1.49
2022-12-12T22:20:07.106Z,-1.46
2022-12-12T22:25:29.481Z,-1.43
2022-12-12T22:30:51.672Z,-1.46
2022-12-12T22:36:21.087Z,-1.54
2022-12-12T22:41:43.447Z,-1.55
2022-12-12T22:47:07.877Z,-1.54
2022-12-12T22:52:30.203Z,-1.50
2022-12-12T22:57:52.366Z,-1.54
2022-12-12T23:03:14.544Z,-1.48
2022-12-12T23:08:36.856Z,-1.40
2022-12-12T23:14:04.249Z,-1.35
2022-12-12T23:19:30.156Z,-1.37
2022-12-12T23:24:52.368Z,-1.39
2022-12-12T23:30:15.266Z,-1.43
2022-12-12T23:35:37.443Z,-1.49
2022-12-12T23:41:00.451Z,-1.65
2022-12-12T23:46:34.671Z,-1.74
2022-12-12T23:52:06.380Z,-1.78
2022-12-12T23:57:29.118Z,-1.83
